createdAt,value
2023-05-10T00:02:05.374Z,5.05
2023-05-10T00:04:32.191Z,3.90
2023-05-10T00:06:59.046Z,3.60
2023-05-10T00:09:25.901Z,4.00
2023-05-10T00:11:52.671Z,4.28
2023-05-10T00:14:19.774Z,4.32
2023-05-10T00:16:46.624Z,4.13
2023-05-10T00:19:13.537Z,3.88
2023-05-10T00:21:40.435Z,3.70
2023-05-10T00:24:07.192Z,3.85
2023-05-10T00:26:34.022Z,4.15
2023-05-10T00:29:00.872Z,4.18
2023-05-10T00:31:27.758Z,4.07
2023-05-10T00:33:55.630Z,3.75
2023-05-10T00:36:22.393Z,4.45
2023-05-10T00:38:49.169Z,4.10
2023-05-10T00:41:16.676Z,4.47
2023-05-10T00:43:43.513Z,4.25
2023-05-10T00:46:10.382Z,4.18
2023-05-10T00:48:37.320Z,4.60
2023-05-10T00:51:04.626Z,4.68
2023-05-10T00:53:33.891Z,4.15
2023-05-10T00:56:01.071Z,4.38
2023-05-10T00:58:29.309Z,4.70
2023-05-10T01:00:57.996Z,3.97
2023-05-10T01:03:25.510Z,5.43
2023-05-10T01:05:52.447Z,4.63
2023-05-10T01:08:19.568Z,4.35
2023-05-10T01:10:46.675Z,4.57
2023-05-10T01:13:14.449Z,4.65
2023-05-10T01:15:41.673Z,5.00
2023-05-10T01:18:10.121Z,4.03
2023-05-10T01:20:44.327Z,4.68
2023-05-10T01:23:37.261Z,4.53
2023-05-10T01:26:42.608Z,4.55
2023-05-10T01:29:33.813Z,4.25
2023-05-10T01:32:21.086Z,4.53
2023-05-10T01:35:02.832Z,5.45
2023-05-10T01:37:43.144Z,4.40
2023-05-10T01:40:16.312Z,4.80
2023-05-10T01:42:53.823Z,4.82
2023-05-10T01:45:42.592Z,5.07
2023-05-10T01:48:11.581Z,5.20
2023-05-10T01:50:42.688Z,4.60
2023-05-10T01:53:11.914Z,4.95
2023-05-10T01:55:49.663Z,4.72
2023-05-10T01:58:35.231Z,4.82
2023-05-10T02:01:05.613Z,5.38
2023-05-10T02:03:35.077Z,4.43
2023-05-10T02:06:03.313Z,5.32
2023-05-10T02:08:31.111Z,4.78
2023-05-10T02:10:59.559Z,5.30
2023-05-10T02:13:28.617Z,5.28
2023-05-10T02:15:58.044Z,5.22
2023-05-10T02:18:26.776Z,4.80
2023-05-10T02:20:55.102Z,5.05
2023-05-10T02:23:22.979Z,5.30
2023-05-10T02:25:52.533Z,4.72
2023-05-10T02:28:20.480Z,5.25
2023-05-10T02:30:49.182Z,5.20
2023-05-10T02:33:16.382Z,5.13
2023-05-10T02:35:43.621Z,4.93
2023-05-10T02:38:12.672Z,5.35
2023-05-10T02:40:41.690Z,5.13
2023-05-10T02:43:13.410Z,5.30
2023-05-10T02:45:41.279Z,5.10
2023-05-10T02:48:08.717Z,5.70
2023-05-10T02:50:38.169Z,5.88
2023-05-10T02:53:12.699Z,5.85
2023-05-10T02:55:43.223Z,5.38
2023-05-10T02:58:10.001Z,5.82
2023-05-10T03:00:37.287Z,4.95
2023-05-10T03:03:04.207Z,5.28
2023-05-10T03:05:31.339Z,6.28
2023-05-10T03:07:58.319Z,5.70
2023-05-10T03:10:30.259Z,5.65
2023-05-10T03:13:08.529Z,5.82
2023-05-10T03:15:38.513Z,5.68
2023-05-10T03:18:05.244Z,5.22
2023-05-10T03:20:47.036Z,5.53
2023-05-10T03:23:24.073Z,5.15
2023-05-10T03:25:51.837Z,6.20
2023-05-10T03:28:21.565Z,6.03
2023-05-10T03:30:48.755Z,6.22
2023-05-10T03:33:15.661Z,5.70
2023-05-10T03:35:42.543Z,5.97
2023-05-10T03:38:09.496Z,5.50
2023-05-10T03:40:36.482Z,6.32
2023-05-10T03:43:03.320Z,5.65
2023-05-10T03:45:30.133Z,5.97
2023-05-10T03:47:57.734Z,5.43
2023-05-10T03:50:24.771Z,5.57
2023-05-10T03:52:52.984Z,5.82
2023-05-10T03:55:21.000Z,5.97
2023-05-10T03:57:50.391Z,5.82
2023-05-10T04:00:17.880Z,6.55
2023-05-10T04:02:46.323Z,5.60
2023-05-10T04:05:13.610Z,5.88
2023-05-10T04:07:40.533Z,7.10
2023-05-10T04:10:07.943Z,5.55
2023-05-10T04:12:34.753Z,5.95
2023-05-10T04:15:02.187Z,6.10
2023-05-10T04:17:29.188Z,6.45
2023-05-10T04:19:56.837Z,5.95
2023-05-10T04:22:23.634Z,5.72
2023-05-10T04:24:50.426Z,6.10
2023-05-10T04:27:17.330Z,6.57
2023-05-10T04:29:44.141Z,5.88
2023-05-10T04:32:11.128Z,6.50
2023-05-10T04:34:38.501Z,5.82
2023-05-10T04:37:05.495Z,5.93
2023-05-10T04:39:33.149Z,6.35
2023-05-10T04:41:59.980Z,5.25
2023-05-10T04:44:26.765Z,6.47
2023-05-10T04:46:53.601Z,5.40
2023-05-10T04:49:20.942Z,5.82
2023-05-10T04:51:47.853Z,5.90
2023-05-10T04:54:14.652Z,4.93
2023-05-10T04:56:41.883Z,5.10
2023-05-10T04:59:08.756Z,5.68
2023-05-10T05:01:35.506Z,5.90
2023-05-10T05:04:02.541Z,4.90
2023-05-10T05:06:29.323Z,5.55
2023-05-10T05:08:56.233Z,5.45
2023-05-10T05:11:23.325Z,5.53
2023-05-10T05:13:50.207Z,5.75
2023-05-10T05:16:17.049Z,5.78
2023-05-10T05:18:44.086Z,5.68
2023-05-10T05:21:17.737Z,5.45
2023-05-10T05:23:45.152Z,4.95
2023-05-10T05:26:12.108Z,4.97
2023-05-10T05:28:39.212Z,5.00
2023-05-10T05:31:06.730Z,5.60
2023-05-10T05:33:33.788Z,5.55
2023-05-10T05:36:05.590Z,5.40
2023-05-10T05:38:32.529Z,4.65
2023-05-10T05:40:59.353Z,4.97
2023-05-10T05:43:26.372Z,4.70
2023-05-10T05:45:57.021Z,5.05
2023-05-10T05:48:23.919Z,4.38
2023-05-10T05:50:51.026Z,5.20
2023-05-10T05:53:17.855Z,4.75
2023-05-10T05:55:55.299Z,4.20
2023-05-10T05:58:23.008Z,4.88
2023-05-10T06:00:50.239Z,4.28
2023-05-10T06:03:17.131Z,4.53
2023-05-10T06:05:44.310Z,4.72
2023-05-10T06:08:12.206Z,4.00
2023-05-10T06:10:39.229Z,4.30
2023-05-10T06:13:06.108Z,4.53
2023-05-10T06:15:33.698Z,4.38
2023-05-10T06:18:00.612Z,4.07
2023-05-10T06:20:27.655Z,4.57
2023-05-10T06:22:54.577Z,4.50
2023-05-10T06:25:21.544Z,3.63
2023-05-10T06:27:51.939Z,4.25
2023-05-10T06:30:21.151Z,4.85
2023-05-10T06:32:48.106Z,4.53
2023-05-10T06:35:14.957Z,4.15
2023-05-10T06:37:42.086Z,3.80
2023-05-10T06:40:09.995Z,3.70
2023-05-10T06:42:36.845Z,3.92
2023-05-10T06:45:03.755Z,4.75
2023-05-10T06:47:30.538Z,4.25
2023-05-10T06:49:57.339Z,3.80
2023-05-10T06:52:24.452Z,3.50
2023-05-10T06:54:51.348Z,3.47
2023-05-10T06:57:30.657Z,3.10
2023-05-10T07:00:04.989Z,3.08
2023-05-10T07:02:31.985Z,3.25
2023-05-10T07:05:01.679Z,3.05
2023-05-10T07:07:29.897Z,2.83
2023-05-10T07:09:58.445Z,3.58
2023-05-10T07:12:25.946Z,3.47
2023-05-10T07:14:53.328Z,3.03
2023-05-10T07:17:20.222Z,2.80
2023-05-10T07:19:47.103Z,2.97
2023-05-10T07:22:13.931Z,2.92
2023-05-10T07:24:41.454Z,3.17
2023-05-10T07:27:08.196Z,2.90
2023-05-10T07:29:35.123Z,2.33
2023-05-10T07:32:02.240Z,2.53
2023-05-10T07:34:31.045Z,2.42
2023-05-10T07:36:59.486Z,2.67
2023-05-10T07:39:28.264Z,3.15
2023-05-10T07:41:58.205Z,3.08
2023-05-10T07:44:25.310Z,2.90
2023-05-10T07:46:52.248Z,2.25
2023-05-10T07:49:19.127Z,2.92
2023-05-10T07:51:45.984Z,2.90
2023-05-10T07:54:13.541Z,2.58
2023-05-10T07:56:41.550Z,3.15
2023-05-10T07:59:09.762Z,2.38
2023-05-10T08:01:38.241Z,2.60
2023-05-10T08:04:05.058Z,2.40
2023-05-10T08:06:31.898Z,2.63
2023-05-10T08:08:58.831Z,2.47
2023-05-10T08:11:25.932Z,2.40
2023-05-10T08:13:53.874Z,2.95
2023-05-10T08:16:21.544Z,3.00
2023-05-10T08:18:48.973Z,2.33
2023-05-10T08:21:16.574Z,2.45
2023-05-10T08:23:44.955Z,2.97
2023-05-10T08:26:12.195Z,2.20
2023-05-10T08:28:39.140Z,3.00
2023-05-10T08:31:06.379Z,2.15
2023-05-10T08:33:33.403Z,2.42
2023-05-10T08:36:00.335Z,2.58
2023-05-10T08:38:27.113Z,2.08
2023-05-10T08:40:57.953Z,2.03
2023-05-10T08:43:28.574Z,2.47
2023-05-10T08:45:57.322Z,2.60
2023-05-10T08:48:25.940Z,2.60
2023-05-10T08:50:57.511Z,2.00
2023-05-10T08:53:28.868Z,2.17
2023-05-10T08:55:56.797Z,2.25
2023-05-10T08:58:23.889Z,2.63
2023-05-10T09:00:53.765Z,2.00
2023-05-10T09:03:20.679Z,2.25
2023-05-10T09:05:48.020Z,2.85
2023-05-10T09:08:17.202Z,1.98
2023-05-10T09:10:45.539Z,2.50
2023-05-10T09:13:12.874Z,2.00
2023-05-10T09:15:39.906Z,2.55
2023-05-10T09:18:06.930Z,2.22
2023-05-10T09:20:33.894Z,2.08
2023-05-10T09:23:00.643Z,2.25
2023-05-10T09:25:27.932Z,2.17
2023-05-10T09:27:55.653Z,2.30
2023-05-10T09:30:27.745Z,2.90
2023-05-10T09:32:56.194Z,2.58
2023-05-10T09:35:27.109Z,2.85
2023-05-10T09:37:57.897Z,4.45
2023-05-10T09:40:26.837Z,2.63
2023-05-10T09:43:01.032Z,2.25
2023-05-10T09:45:29.959Z,2.42
2023-05-10T09:48:01.527Z,2.20
2023-05-10T09:50:29.012Z,2.85
2023-05-10T09:53:00.037Z,2.30
2023-05-10T09:55:39.819Z,3.10
2023-05-10T09:58:11.082Z,2.63
2023-05-10T10:00:39.760Z,2.60
2023-05-10T10:03:07.629Z,2.72
2023-05-10T10:05:36.677Z,2.35
2023-05-10T10:08:07.221Z,2.40
2023-05-10T10:10:35.413Z,2.67
2023-05-10T10:13:03.030Z,3.90
2023-05-10T10:15:30.208Z,2.47
2023-05-10T10:17:57.047Z,2.03
2023-05-10T10:20:24.994Z,2.95
2023-05-10T10:22:52.312Z,2.80
2023-05-10T10:25:21.119Z,2.33
2023-05-10T10:27:54.190Z,2.53
2023-05-10T10:30:30.850Z,2.40
2023-05-10T10:35:55.339Z,2.30
2023-05-10T10:38:23.029Z,2.35
2023-05-10T10:41:10.684Z,2.40
2023-05-10T10:43:37.494Z,2.25
2023-05-10T10:46:18.689Z,2.72
2023-05-10T10:48:52.385Z,2.30
2023-05-10T10:51:19.180Z,2.30
2023-05-10T10:53:48.579Z,1.80
2023-05-10T10:56:16.345Z,2.38
2023-05-10T10:58:52.207Z,2.35
2023-05-10T11:01:20.588Z,2.45
2023-05-10T11:04:05.521Z,2.45
2023-05-10T11:06:34.461Z,3.22
2023-05-10T11:09:10.412Z,2.70
2023-05-10T11:11:49.141Z,2.60
2023-05-10T11:14:20.672Z,2.90
2023-05-10T11:16:47.514Z,2.28
2023-05-10T11:19:16.303Z,2.47
2023-05-10T11:22:05.877Z,2.63
2023-05-10T11:24:34.849Z,2.25
2023-05-10T11:27:01.990Z,2.33
2023-05-10T11:29:28.801Z,3.20
2023-05-10T11:31:59.105Z,2.47
2023-05-10T11:34:36.437Z,2.45
2023-05-10T11:37:03.407Z,2.58
2023-05-10T11:39:32.005Z,2.47
2023-05-10T11:41:59.657Z,2.40
2023-05-10T11:44:33.807Z,2.70
2023-05-10T11:47:04.186Z,2.83
2023-05-10T11:49:31.228Z,2.95
2023-05-10T11:52:11.983Z,2.65
2023-05-10T11:54:38.905Z,2.40
2023-05-10T11:57:06.139Z,2.38
2023-05-10T11:59:32.926Z,2.67
2023-05-10T12:02:00.243Z,2.47
2023-05-10T12:04:28.801Z,2.80
2023-05-10T12:06:55.814Z,2.63
2023-05-10T12:09:35.525Z,3.55
2023-05-10T12:12:06.851Z,3.60
2023-05-10T12:14:36.053Z,2.58
2023-05-10T12:17:02.921Z,2.80
2023-05-10T12:19:37.499Z,2.67
2023-05-10T12:22:06.677Z,2.67
2023-05-10T12:24:36.419Z,2.40
2023-05-10T12:27:09.206Z,3.03
2023-05-10T12:29:36.150Z,2.80
2023-05-10T12:32:03.520Z,3.08
2023-05-10T12:34:39.895Z,2.40
2023-05-10T12:37:07.125Z,2.55
2023-05-10T12:39:45.054Z,2.95
2023-05-10T12:42:12.053Z,2.20
2023-05-10T12:44:39.372Z,2.47
2023-05-10T12:47:06.929Z,2.60
2023-05-10T12:49:33.845Z,2.53
2023-05-10T12:52:00.701Z,3.42
2023-05-10T12:54:27.583Z,2.67
2023-05-10T12:56:54.377Z,2.60
2023-05-10T12:59:21.193Z,2.55
2023-05-10T13:01:48.022Z,3.00
2023-05-10T13:04:14.856Z,2.50
2023-05-10T13:06:41.651Z,2.72
2023-05-10T13:09:08.672Z,2.65
2023-05-10T13:11:35.479Z,2.30
2023-05-10T13:14:04.078Z,2.30
2023-05-10T13:16:31.181Z,2.70
2023-05-10T13:18:58.096Z,2.30
2023-05-10T13:21:26.115Z,2.70
2023-05-10T13:23:52.965Z,3.08
2023-05-10T13:26:21.018Z,2.40
2023-05-10T13:28:47.935Z,2.30
2023-05-10T13:31:14.747Z,2.55
2023-05-10T13:33:41.551Z,2.65
2023-05-10T13:36:08.598Z,2.80
2023-05-10T13:38:35.408Z,2.58
2023-05-10T13:41:02.165Z,7.50
2023-05-10T13:43:30.669Z,2.90
2023-05-10T13:45:57.843Z,5.30
2023-05-10T13:48:24.658Z,2.67
2023-05-10T13:50:51.636Z,4.88
2023-05-10T13:53:18.453Z,2.60
2023-05-10T13:55:45.353Z,2.50
2023-05-10T13:58:12.345Z,3.60
2023-05-10T14:00:39.081Z,2.45
2023-05-10T14:03:07.276Z,2.78
2023-05-10T14:05:34.220Z,2.80
2023-05-10T14:08:00.992Z,18.08
2023-05-10T14:10:27.868Z,2.97
2023-05-10T14:12:54.623Z,2.42
2023-05-10T14:15:21.555Z,2.35
2023-05-10T14:17:48.756Z,2.80
2023-05-10T14:20:15.637Z,2.85
2023-05-10T14:22:42.422Z,2.75
2023-05-10T14:25:09.783Z,2.90
2023-05-10T14:27:36.590Z,2.80
2023-05-10T14:30:03.583Z,3.17
2023-05-10T14:32:30.409Z,3.15
2023-05-10T14:34:57.171Z,3.00
2023-05-10T14:37:24.138Z,2.75
2023-05-10T14:39:51.502Z,2.72
2023-05-10T14:42:18.245Z,2.92
2023-05-10T14:44:45.075Z,2.33
2023-05-10T14:47:12.432Z,2.92
2023-05-10T14:49:39.271Z,2.58
2023-05-10T14:52:06.655Z,2.85
2023-05-10T14:54:34.479Z,2.67
2023-05-10T14:57:01.627Z,2.40
2023-05-10T14:59:28.337Z,2.55
2023-05-10T15:01:55.757Z,2.67
2023-05-10T15:04:23.680Z,2.85
2023-05-10T15:06:51.691Z,2.25
2023-05-10T15:09:18.472Z,2.40
2023-05-10T15:11:45.535Z,2.65
2023-05-10T15:14:12.466Z,2.45
2023-05-10T15:16:39.457Z,2.75
2023-05-10T15:19:06.451Z,2.55
2023-05-10T15:21:39.548Z,2.55
2023-05-10T15:24:07.027Z,2.25
2023-05-10T15:26:34.147Z,2.20
2023-05-10T15:29:00.991Z,2.60
2023-05-10T15:31:28.145Z,2.80
2023-05-10T15:34:01.322Z,2.90
2023-05-10T15:36:28.255Z,2.67
2023-05-10T15:38:55.911Z,2.42
2023-05-10T15:41:22.772Z,2.78
2023-05-10T15:43:49.667Z,2.50
2023-05-10T15:46:16.530Z,3.17
2023-05-10T15:48:43.449Z,2.38
2023-05-10T15:51:10.342Z,2.85
2023-05-10T15:53:37.163Z,2.70
2023-05-10T15:56:04.241Z,3.80
2023-05-10T15:58:31.702Z,3.97
2023-05-10T16:00:58.582Z,3.90
2023-05-10T16:03:25.413Z,4.40
2023-05-10T16:05:52.305Z,4.55
2023-05-10T16:08:19.098Z,4.28
2023-05-10T16:10:45.900Z,4.70
2023-05-10T16:13:15.015Z,4.88
2023-05-10T16:15:41.915Z,5.47
2023-05-10T16:18:08.918Z,4.20
2023-05-10T16:20:36.098Z,4.80
2023-05-10T16:23:07.212Z,4.47
2023-05-10T16:25:34.088Z,5.88
2023-05-10T16:28:01.270Z,5.72
2023-05-10T16:30:30.310Z,5.72
2023-05-10T16:32:58.406Z,5.63
2023-05-10T16:35:25.292Z,5.13
2023-05-10T16:37:52.115Z,6.03
2023-05-10T16:40:19.600Z,5.25
2023-05-10T16:42:46.455Z,4.60
2023-05-10T16:45:13.602Z,5.15
2023-05-10T16:47:41.185Z,4.75
2023-05-10T16:50:08.889Z,5.57
2023-05-10T16:52:36.959Z,5.05
2023-05-10T16:55:04.516Z,5.28
2023-05-10T16:57:32.883Z,6.22
2023-05-10T16:59:59.787Z,5.13
2023-05-10T17:02:26.911Z,5.50
2023-05-10T17:04:56.067Z,5.50
2023-05-10T17:07:25.383Z,5.45
2023-05-10T17:09:53.059Z,5.28
2023-05-10T17:12:20.043Z,4.53
2023-05-10T17:14:47.297Z,5.28
2023-05-10T17:17:14.225Z,5.50
2023-05-10T17:19:44.793Z,5.07
2023-05-10T17:22:13.505Z,4.45
2023-05-10T17:24:40.323Z,4.90
2023-05-10T17:27:07.045Z,5.10
2023-05-10T17:29:33.886Z,5.28
2023-05-10T17:32:00.865Z,4.70
2023-05-10T17:34:28.118Z,3.95
2023-05-10T17:36:55.535Z,4.50
2023-05-10T17:39:22.440Z,4.30
2023-05-10T17:41:49.186Z,4.22
2023-05-10T17:44:15.959Z,3.95
2023-05-10T17:46:42.762Z,4.03
2023-05-10T17:49:09.582Z,4.03
2023-05-10T17:51:36.308Z,4.55
2023-05-10T17:54:03.247Z,4.35
2023-05-10T17:56:30.078Z,4.20
2023-05-10T17:58:56.965Z,4.95
2023-05-10T18:01:23.855Z,4.47
2023-05-10T18:03:51.834Z,4.70
2023-05-10T18:06:18.726Z,4.85
2023-05-10T18:08:45.550Z,4.82
2023-05-10T18:11:12.404Z,4.63
2023-05-10T18:13:39.231Z,4.53
2023-05-10T18:16:08.843Z,4.03
2023-05-10T18:18:36.211Z,3.92
2023-05-10T18:21:03.817Z,4.45
2023-05-10T18:23:30.582Z,4.57
2023-05-10T18:25:58.096Z,5.25
2023-05-10T18:28:24.935Z,4.65
2023-05-10T18:30:51.916Z,4.90
2023-05-10T18:33:18.984Z,4.40
2023-05-10T18:35:46.205Z,5.03
2023-05-10T18:38:13.669Z,5.20
2023-05-10T18:40:42.515Z,4.93
2023-05-10T18:43:09.464Z,5.13
2023-05-10T18:45:36.312Z,4.93
2023-05-10T18:48:03.181Z,4.57
2023-05-10T18:50:30.054Z,4.65
2023-05-10T18:52:56.804Z,5.15
2023-05-10T18:55:25.870Z,4.75
2023-05-10T18:57:52.689Z,5.65
2023-05-10T19:00:20.498Z,5.32
2023-05-10T19:02:47.883Z,5.13
2023-05-10T19:05:15.664Z,5.05
2023-05-10T19:07:43.896Z,5.05
2023-05-10T19:10:12.937Z,5.25
2023-05-10T19:12:41.743Z,4.97
2023-05-10T19:15:09.368Z,5.05
2023-05-10T19:17:36.656Z,4.80
2023-05-10T19:20:05.463Z,4.57
2023-05-10T19:22:45.518Z,5.10
2023-05-10T19:25:20.212Z,5.05
2023-05-10T19:27:47.053Z,5.25
2023-05-10T19:30:13.918Z,4.55
2023-05-10T19:32:43.941Z,4.88
2023-05-10T19:35:12.725Z,4.45
2023-05-10T19:37:39.564Z,4.72
2023-05-10T19:40:07.014Z,4.78
2023-05-10T19:42:34.613Z,4.78
2023-05-10T19:45:01.460Z,4.85
2023-05-10T19:47:28.322Z,4.97
2023-05-10T19:49:55.222Z,4.65
2023-05-10T19:52:22.712Z,5.20
2023-05-10T19:54:49.521Z,4.97
2023-05-10T19:57:16.302Z,6.18
2023-05-10T19:59:43.129Z,4.72
2023-05-10T20:02:09.951Z,4.88
2023-05-10T20:04:36.730Z,5.07
2023-05-10T20:07:03.612Z,4.95
2023-05-10T20:09:30.303Z,5.07
2023-05-10T20:11:57.090Z,5.20
2023-05-10T20:14:23.897Z,5.22
2023-05-10T20:16:50.725Z,5.53
2023-05-10T20:19:17.553Z,5.50
2023-05-10T20:21:44.370Z,5.53
2023-05-10T20:24:11.123Z,5.78
2023-05-10T20:26:37.878Z,5.25
2023-05-10T20:29:04.841Z,5.75
2023-05-10T20:31:31.649Z,5.68
2023-05-10T20:33:58.544Z,6.75
2023-05-10T20:36:25.392Z,5.85
2023-05-10T20:38:52.129Z,5.90
2023-05-10T20:41:18.966Z,5.85
2023-05-10T20:43:45.730Z,6.10
2023-05-10T20:46:12.578Z,6.18
2023-05-10T20:48:39.702Z,7.05
2023-05-10T20:51:07.001Z,6.22
2023-05-10T20:53:33.938Z,5.80
2023-05-10T20:56:00.663Z,5.88
2023-05-10T20:58:27.385Z,5.65
2023-05-10T21:00:54.216Z,5.50
2023-05-10T21:03:21.121Z,5.43
2023-05-10T21:05:47.950Z,5.63
2023-05-10T21:08:14.710Z,5.55
2023-05-10T21:10:41.502Z,5.75
2023-05-10T21:13:08.281Z,6.18
2023-05-10T21:15:35.123Z,6.13
2023-05-10T21:18:01.901Z,6.05
2023-05-10T21:20:29.704Z,6.60
2023-05-10T21:22:56.531Z,6.13
2023-05-10T21:25:23.569Z,5.95
2023-05-10T21:27:50.334Z,6.40
2023-05-10T21:30:18.015Z,6.93
2023-05-10T21:32:44.963Z,7.28
2023-05-10T21:35:11.883Z,6.70
2023-05-10T21:37:38.637Z,6.32
2023-05-10T21:40:05.915Z,6.75
2023-05-10T21:42:32.727Z,7.55
2023-05-10T21:44:59.534Z,6.43
2023-05-10T21:47:26.322Z,6.07
2023-05-10T21:49:53.413Z,6.10
2023-05-10T21:52:20.276Z,5.88
2023-05-10T21:54:47.144Z,6.13
2023-05-10T21:57:14.298Z,5.45
2023-05-10T21:59:41.122Z,5.28
2023-05-10T22:02:08.077Z,5.47
2023-05-10T22:04:34.859Z,5.90
2023-05-10T22:07:01.757Z,5.47
2023-05-10T22:09:28.589Z,6.22
2023-05-10T22:11:55.612Z,6.53
2023-05-10T22:14:23.031Z,5.90
2023-05-10T22:16:49.910Z,6.63
2023-05-10T22:19:16.794Z,6.35
2023-05-10T22:21:43.533Z,6.70
2023-05-10T22:24:10.381Z,6.47
2023-05-10T22:26:37.264Z,6.68
2023-05-10T22:29:04.475Z,6.75
2023-05-10T22:31:31.641Z,6.60
2023-05-10T22:33:58.568Z,7.57
2023-05-10T22:36:25.493Z,7.35
2023-05-10T22:38:52.280Z,7.35
2023-05-10T22:41:19.094Z,7.70
2023-05-10T22:43:46.352Z,7.28
2023-05-10T22:46:13.447Z,6.07
2023-05-10T22:48:41.456Z,5.55
2023-05-10T22:51:08.289Z,6.38
2023-05-10T22:53:35.254Z,6.50
2023-05-10T22:56:02.419Z,6.50
2023-05-10T22:58:29.269Z,6.18
2023-05-10T23:00:56.118Z,6.47
2023-05-10T23:03:23.109Z,6.30
2023-05-10T23:05:49.820Z,6.50
2023-05-10T23:08:17.121Z,7.20
2023-05-10T23:10:43.886Z,6.57
2023-05-10T23:13:10.788Z,7.43
2023-05-10T23:15:37.752Z,6.70
2023-05-10T23:18:05.882Z,6.70
2023-05-10T23:20:33.033Z,7.28
2023-05-10T23:22:59.776Z,7.63
2023-05-10T23:25:26.659Z,7.15
2023-05-10T23:27:53.609Z,7.90
2023-05-10T23:30:20.404Z,6.97
2023-05-10T23:32:47.255Z,7.82
2023-05-10T23:35:14.034Z,8.65
2023-05-10T23:37:42.023Z,7.78
2023-05-10T23:40:09.153Z,8.32
2023-05-10T23:42:35.950Z,9.52
2023-05-10T23:45:02.911Z,8.75
2023-05-10T23:47:29.738Z,7.85
2023-05-10T23:49:57.119Z,7.45
2023-05-10T23:52:25.107Z,7.57
2023-05-10T23:54:52.702Z,6.97
2023-05-10T23:57:19.946Z,7.18
2023-05-10T23:59:46.884Z,7.15
